sensor_id;sensor_type;location;lat;lon;timestamp;P1;durP1;ratioP1;P2;durP2;ratioP2
41514;SDS011;27247;48.020;16.720;2022-12-29T00:03:37;21.02;;;9.75;;
41514;SDS011;27247;48.020;16.720;2022-12-29T00:07:47;19.27;;;10.50;;
41514;SDS011;27247;48.020;16.720;2022-12-29T00:11:58;23.02;;;9.55;;
41514;SDS011;27247;48.020;16.720;2022-12-29T00:16:09;17.23;;;9.40;;
41514;SDS011;27247;48.020;16.720;2022-12-29T00:20:19;17.42;;;9.43;;
41514;SDS011;27247;48.020;16.720;2022-12-29T00:24:48;15.05;;;8.93;;
41514;SDS011;27247;48.020;16.720;2022-12-29T00:29:17;27.17;;;10.88;;
41514;SDS011;27247;48.020;16.720;2022-12-29T00:33:46;22.45;;;11.10;;
41514;SDS011;27247;48.020;16.720;2022-12-29T00:38:15;26.52;;;11.38;;
41514;SDS011;27247;48.020;16.720;2022-12-29T00:47:13;21.03;;;10.43;;
41514;SDS011;27247;48.020;16.720;2022-12-29T00:51:23;21.98;;;10.70;;
41514;SDS011;27247;48.020;16.720;2022-12-29T00:55:37;21.88;;;11.55;;
41514;SDS011;27247;48.020;16.720;2022-12-29T00:59:48;20.40;;;10.50;;
41514;SDS011;27247;48.020;16.720;2022-12-29T01:03:58;21.20;;;11.25;;
41514;SDS011;27247;48.020;16.720;2022-12-29T01:08:09;23.17;;;10.60;;
41514;SDS011;27247;48.020;16.720;2022-12-29T01:12:19;22.35;;;11.10;;
41514;SDS011;27247;48.020;16.720;2022-12-29T01:16:49;21.42;;;11.82;;
41514;SDS011;27247;48.020;16.720;2022-12-29T01:21:01;21.27;;;10.52;;
41514;SDS011;27247;48.020;16.720;2022-12-29T01:25:13;21.30;;;10.88;;
41514;SDS011;27247;48.020;16.720;2022-12-29T01:29:23;21.75;;;10.60;;
41514;SDS011;27247;48.020;16.720;2022-12-29T01:33:33;19.90;;;10.60;;
41514;SDS011;27247;48.020;16.720;2022-12-29T01:37:44;23.90;;;12.07;;
41514;SDS011;27247;48.020;16.720;2022-12-29T01:41:54;22.38;;;11.25;;
41514;SDS011;27247;48.020;16.720;2022-12-29T01:46:04;24.17;;;10.82;;
41514;SDS011;27247;48.020;16.720;2022-12-29T01:50:50;19.63;;;10.27;;
41514;SDS011;27247;48.020;16.720;2022-12-29T01:55:02;23.48;;;11.73;;
41514;SDS011;27247;48.020;16.720;2022-12-29T01:59:15;22.40;;;11.57;;
41514;SDS011;27247;48.020;16.720;2022-12-29T02:03:30;24.08;;;11.98;;
41514;SDS011;27247;48.020;16.720;2022-12-29T02:07:42;24.95;;;13.43;;
41514;SDS011;27247;48.020;16.720;2022-12-29T02:11:53;21.23;;;11.77;;
41514;SDS011;27247;48.020;16.720;2022-12-29T02:16:15;24.27;;;11.60;;
41514;SDS011;27247;48.020;16.720;2022-12-29T02:38:54;24.27;;;12.80;;
41514;SDS011;27247;48.020;16.720;2022-12-29T02:43:18;25.05;;;12.15;;
41514;SDS011;27247;48.020;16.720;2022-12-29T02:47:37;24.67;;;11.00;;
41514;SDS011;27247;48.020;16.720;2022-12-29T02:51:58;26.02;;;12.55;;
41514;SDS011;27247;48.020;16.720;2022-12-29T02:56:20;26.40;;;12.20;;
41514;SDS011;27247;48.020;16.720;2022-12-29T03:00:31;26.30;;;12.82;;
41514;SDS011;27247;48.020;16.720;2022-12-29T03:13:37;33.30;;;12.73;;
41514;SDS011;27247;48.020;16.720;2022-12-29T03:18:15;28.75;;;12.45;;
41514;SDS011;27247;48.020;16.720;2022-12-29T03:22:35;22.08;;;12.23;;
41514;SDS011;27247;48.020;16.720;2022-12-29T03:26:49;25.13;;;12.00;;
41514;SDS011;27247;48.020;16.720;2022-12-29T03:31:03;23.63;;;12.85;;
41514;SDS011;27247;48.020;16.720;2022-12-29T03:35:15;28.42;;;13.55;;
41514;SDS011;27247;48.020;16.720;2022-12-29T03:39:27;31.92;;;14.77;;
41514;SDS011;27247;48.020;16.720;2022-12-29T03:43:38;31.17;;;12.13;;
41514;SDS011;27247;48.020;16.720;2022-12-29T03:47:49;27.25;;;12.70;;
41514;SDS011;27247;48.020;16.720;2022-12-29T03:52:00;27.23;;;13.07;;
41514;SDS011;27247;48.020;16.720;2022-12-29T03:56:10;28.75;;;14.50;;
41514;SDS011;27247;48.020;16.720;2022-12-29T04:00:20;28.20;;;13.93;;
41514;SDS011;27247;48.020;16.720;2022-12-29T04:04:31;23.45;;;12.48;;
41514;SDS011;27247;48.020;16.720;2022-12-29T04:08:41;27.55;;;13.65;;
41514;SDS011;27247;48.020;16.720;2022-12-29T04:12:51;32.22;;;14.43;;
41514;SDS011;27247;48.020;16.720;2022-12-29T04:17:02;27.75;;;14.23;;
41514;SDS011;27247;48.020;16.720;2022-12-29T04:21:12;27.70;;;12.95;;
41514;SDS011;27247;48.020;16.720;2022-12-29T04:25:22;29.63;;;15.20;;
41514;SDS011;27247;48.020;16.720;2022-12-29T04:29:33;23.73;;;11.93;;
41514;SDS011;27247;48.020;16.720;2022-12-29T04:33:43;26.90;;;14.02;;
41514;SDS011;27247;48.020;16.720;2022-12-29T04:37:54;35.88;;;16.00;;
41514;SDS011;27247;48.020;16.720;2022-12-29T04:42:04;29.23;;;13.98;;
41514;SDS011;27247;48.020;16.720;2022-12-29T04:46:14;26.75;;;14.07;;
41514;SDS011;27247;48.020;16.720;2022-12-29T04:50:25;31.88;;;14.13;;
41514;SDS011;27247;48.020;16.720;2022-12-29T04:54:36;28.33;;;14.88;;
41514;SDS011;27247;48.020;16.720;2022-12-29T04:58:46;26.02;;;13.85;;
41514;SDS011;27247;48.020;16.720;2022-12-29T05:02:57;30.40;;;15.27;;
41514;SDS011;27247;48.020;16.720;2022-12-29T05:07:07;29.83;;;14.30;;
41514;SDS011;27247;48.020;16.720;2022-12-29T05:11:18;28.30;;;15.30;;
41514;SDS011;27247;48.020;16.720;2022-12-29T05:15:28;28.73;;;14.85;;
41514;SDS011;27247;48.020;16.720;2022-12-29T05:19:38;32.53;;;15.40;;
41514;SDS011;27247;48.020;16.720;2022-12-29T05:23:49;34.67;;;14.20;;
41514;SDS011;27247;48.020;16.720;2022-12-29T05:27:59;28.80;;;15.55;;
41514;SDS011;27247;48.020;16.720;2022-12-29T05:32:09;34.05;;;16.70;;
41514;SDS011;27247;48.020;16.720;2022-12-29T05:36:20;31.75;;;15.25;;
41514;SDS011;27247;48.020;16.720;2022-12-29T05:40:30;34.80;;;15.88;;
41514;SDS011;27247;48.020;16.720;2022-12-29T05:44:41;27.08;;;14.30;;
41514;SDS011;27247;48.020;16.720;2022-12-29T05:48:51;31.33;;;16.20;;
41514;SDS011;27247;48.020;16.720;2022-12-29T05:53:01;31.05;;;15.48;;
41514;SDS011;27247;48.020;16.720;2022-12-29T05:57:12;30.95;;;14.63;;
41514;SDS011;27247;48.020;16.720;2022-12-29T06:01:23;32.53;;;15.88;;
41514;SDS011;27247;48.020;16.720;2022-12-29T06:05:33;35.30;;;16.33;;
41514;SDS011;27247;48.020;16.720;2022-12-29T06:09:44;29.83;;;15.82;;
41514;SDS011;27247;48.020;16.720;2022-12-29T06:13:54;36.83;;;16.88;;
41514;SDS011;27247;48.020;16.720;2022-12-29T06:18:04;33.50;;;17.02;;
41514;SDS011;27247;48.020;16.720;2022-12-29T06:22:15;35.30;;;17.17;;
41514;SDS011;27247;48.020;16.720;2022-12-29T06:26:25;33.95;;;17.33;;
41514;SDS011;27247;48.020;16.720;2022-12-29T06:30:36;32.40;;;17.15;;
41514;SDS011;27247;48.020;16.720;2022-12-29T06:34:47;38.28;;;17.75;;
41514;SDS011;27247;48.020;16.720;2022-12-29T06:38:58;34.33;;;17.23;;
41514;SDS011;27247;48.020;16.720;2022-12-29T06:43:08;33.30;;;17.65;;
41514;SDS011;27247;48.020;16.720;2022-12-29T06:47:18;39.33;;;18.15;;
41514;SDS011;27247;48.020;16.720;2022-12-29T06:51:29;36.20;;;18.70;;
41514;SDS011;27247;48.020;16.720;2022-12-29T06:55:40;37.75;;;19.42;;
41514;SDS011;27247;48.020;16.720;2022-12-29T06:59:51;34.58;;;17.95;;
41514;SDS011;27247;48.020;16.720;2022-12-29T07:04:03;38.80;;;18.70;;
41514;SDS011;27247;48.020;16.720;2022-12-29T07:08:13;35.88;;;18.23;;
41514;SDS011;27247;48.020;16.720;2022-12-29T07:12:24;39.95;;;20.90;;
41514;SDS011;27247;48.020;16.720;2022-12-29T07:16:34;41.17;;;20.65;;
41514;SDS011;27247;48.020;16.720;2022-12-29T07:20:44;43.58;;;20.67;;
41514;SDS011;27247;48.020;16.720;2022-12-29T07:24:55;38.53;;;19.25;;
41514;SDS011;27247;48.020;16.720;2022-12-29T07:29:05;37.72;;;19.17;;
41514;SDS011;27247;48.020;16.720;2022-12-29T07:33:15;36.92;;;18.90;;
41514;SDS011;27247;48.020;16.720;2022-12-29T07:37:26;38.28;;;19.13;;
41514;SDS011;27247;48.020;16.720;2022-12-29T07:41:36;40.65;;;19.98;;
41514;SDS011;27247;48.020;16.720;2022-12-29T07:45:47;41.97;;;19.65;;
41514;SDS011;27247;48.020;16.720;2022-12-29T07:49:58;44.40;;;20.55;;
41514;SDS011;27247;48.020;16.720;2022-12-29T07:54:08;42.60;;;21.95;;
41514;SDS011;27247;48.020;16.720;2022-12-29T07:58:19;41.17;;;19.38;;
41514;SDS011;27247;48.020;16.720;2022-12-29T08:02:29;42.55;;;20.65;;
41514;SDS011;27247;48.020;16.720;2022-12-29T08:06:39;44.13;;;21.08;;
41514;SDS011;27247;48.020;16.720;2022-12-29T08:10:50;46.33;;;21.52;;
41514;SDS011;27247;48.020;16.720;2022-12-29T08:15:00;53.80;;;22.50;;
41514;SDS011;27247;48.020;16.720;2022-12-29T08:19:11;43.70;;;20.38;;
41514;SDS011;27247;48.020;16.720;2022-12-29T08:23:22;44.40;;;21.10;;
41514;SDS011;27247;48.020;16.720;2022-12-29T08:27:32;48.63;;;23.80;;
41514;SDS011;27247;48.020;16.720;2022-12-29T08:31:43;47.80;;;22.83;;
41514;SDS011;27247;48.020;16.720;2022-12-29T08:36:03;50.75;;;24.13;;
41514;SDS011;27247;48.020;16.720;2022-12-29T08:40:15;49.20;;;25.33;;
41514;SDS011;27247;48.020;16.720;2022-12-29T08:44:26;51.85;;;24.75;;
41514;SDS011;27247;48.020;16.720;2022-12-29T08:48:36;46.63;;;23.27;;
41514;SDS011;27247;48.020;16.720;2022-12-29T08:52:47;49.00;;;23.45;;
41514;SDS011;27247;48.020;16.720;2022-12-29T08:56:57;52.78;;;23.90;;
41514;SDS011;27247;48.020;16.720;2022-12-29T09:01:08;52.38;;;24.60;;
41514;SDS011;27247;48.020;16.720;2022-12-29T09:05:19;55.22;;;25.67;;
41514;SDS011;27247;48.020;16.720;2022-12-29T09:09:31;59.90;;;27.52;;
41514;SDS011;27247;48.020;16.720;2022-12-29T09:13:42;56.38;;;26.33;;
41514;SDS011;27247;48.020;16.720;2022-12-29T09:17:52;61.78;;;27.63;;
41514;SDS011;27247;48.020;16.720;2022-12-29T09:22:05;61.17;;;28.10;;
41514;SDS011;27247;48.020;16.720;2022-12-29T09:26:15;62.55;;;29.08;;
41514;SDS011;27247;48.020;16.720;2022-12-29T09:30:26;59.47;;;25.48;;
41514;SDS011;27247;48.020;16.720;2022-12-29T09:34:36;64.03;;;26.33;;
41514;SDS011;27247;48.020;16.720;2022-12-29T09:38:46;64.25;;;26.95;;
41514;SDS011;27247;48.020;16.720;2022-12-29T09:43:03;65.18;;;26.83;;
41514;SDS011;27247;48.020;16.720;2022-12-29T09:47:27;60.78;;;25.17;;
41514;SDS011;27247;48.020;16.720;2022-12-29T09:51:38;62.33;;;27.42;;
41514;SDS011;27247;48.020;16.720;2022-12-29T09:55:56;61.25;;;25.60;;
41514;SDS011;27247;48.020;16.720;2022-12-29T10:00:17;62.38;;;27.65;;
41514;SDS011;27247;48.020;16.720;2022-12-29T10:04:29;59.00;;;26.20;;
41514;SDS011;27247;48.020;16.720;2022-12-29T10:13:17;61.92;;;26.08;;
41514;SDS011;27247;48.020;16.720;2022-12-29T10:17:44;70.55;;;27.42;;
41514;SDS011;27247;48.020;16.720;2022-12-29T10:22:08;59.80;;;25.48;;
41514;SDS011;27247;48.020;16.720;2022-12-29T10:26:49;69.15;;;30.75;;
41514;SDS011;27247;48.020;16.720;2022-12-29T10:31:03;66.00;;;30.05;;
41514;SDS011;27247;48.020;16.720;2022-12-29T10:35:20;55.30;;;28.02;;
41514;SDS011;27247;48.020;16.720;2022-12-29T10:39:40;60.40;;;29.63;;
41514;SDS011;27247;48.020;16.720;2022-12-29T10:43:59;57.80;;;29.55;;
41514;SDS011;27247;48.020;16.720;2022-12-29T10:48:12;57.78;;;29.55;;
41514;SDS011;27247;48.020;16.720;2022-12-29T10:52:30;58.15;;;30.10;;
41514;SDS011;27247;48.020;16.720;2022-12-29T10:56:44;59.60;;;27.83;;
41514;SDS011;27247;48.020;16.720;2022-12-29T11:01:00;56.28;;;28.17;;
41514;SDS011;27247;48.020;16.720;2022-12-29T11:05:19;59.05;;;28.40;;
41514;SDS011;27247;48.020;16.720;2022-12-29T11:09:36;54.13;;;27.88;;
41514;SDS011;27247;48.020;16.720;2022-12-29T11:13:49;58.72;;;28.83;;
41514;SDS011;27247;48.020;16.720;2022-12-29T11:18:00;59.63;;;29.50;;
41514;SDS011;27247;48.020;16.720;2022-12-29T11:22:12;54.85;;;28.15;;
41514;SDS011;27247;48.020;16.720;2022-12-29T11:26:30;59.92;;;28.13;;
41514;SDS011;27247;48.020;16.720;2022-12-29T11:30:42;59.60;;;30.33;;
41514;SDS011;27247;48.020;16.720;2022-12-29T11:34:53;57.92;;;29.38;;
41514;SDS011;27247;48.020;16.720;2022-12-29T11:39:03;59.13;;;29.05;;
41514;SDS011;27247;48.020;16.720;2022-12-29T11:47:47;56.45;;;28.98;;
41514;SDS011;27247;48.020;16.720;2022-12-29T11:51:59;58.97;;;28.50;;
41514;SDS011;27247;48.020;16.720;2022-12-29T11:56:12;56.97;;;27.38;;
41514;SDS011;27247;48.020;16.720;2022-12-29T12:00:25;54.97;;;27.73;;
41514;SDS011;27247;48.020;16.720;2022-12-29T12:04:39;53.40;;;28.13;;
41514;SDS011;27247;48.020;16.720;2022-12-29T12:13:40;55.25;;;28.25;;
41514;SDS011;27247;48.020;16.720;2022-12-29T12:17:55;53.03;;;29.00;;
41514;SDS011;27247;48.020;16.720;2022-12-29T12:22:29;52.28;;;28.02;;
41514;SDS011;27247;48.020;16.720;2022-12-29T12:26:55;55.67;;;28.58;;
41514;SDS011;27247;48.020;16.720;2022-12-29T12:36:12;53.45;;;28.02;;
41514;SDS011;27247;48.020;16.720;2022-12-29T13:07:16;42.60;;;25.67;;
41514;SDS011;27247;48.020;16.720;2022-12-29T13:15:53;47.43;;;24.90;;
41514;SDS011;27247;48.020;16.720;2022-12-29T13:20:59;44.95;;;25.02;;
41514;SDS011;27247;48.020;16.720;2022-12-29T13:25:03;55.60;;;26.88;;
41514;SDS011;27247;48.020;16.720;2022-12-29T13:29:34;49.85;;;27.00;;
41514;SDS011;27247;48.020;16.720;2022-12-29T13:38:13;59.15;;;27.23;;
41514;SDS011;27247;48.020;16.720;2022-12-29T13:42:32;49.53;;;27.33;;
41514;SDS011;27247;48.020;16.720;2022-12-29T13:46:44;51.95;;;27.13;;
41514;SDS011;27247;48.020;16.720;2022-12-29T13:50:57;55.55;;;27.88;;
41514;SDS011;27247;48.020;16.720;2022-12-29T13:59:52;50.70;;;25.65;;
41514;SDS011;27247;48.020;16.720;2022-12-29T14:04:10;58.30;;;28.80;;
41514;SDS011;27247;48.020;16.720;2022-12-29T14:08:22;48.63;;;25.45;;
41514;SDS011;27247;48.020;16.720;2022-12-29T14:12:40;46.47;;;24.02;;
41514;SDS011;27247;48.020;16.720;2022-12-29T14:16:52;46.38;;;23.30;;
41514;SDS011;27247;48.020;16.720;2022-12-29T14:21:11;40.15;;;21.85;;
41514;SDS011;27247;48.020;16.720;2022-12-29T14:30:49;44.47;;;22.98;;
41514;SDS011;27247;48.020;16.720;2022-12-29T14:35:46;46.78;;;23.10;;
41514;SDS011;27247;48.020;16.720;2022-12-29T14:39:49;46.88;;;23.13;;
41514;SDS011;27247;48.020;16.720;2022-12-29T14:44:32;41.63;;;22.42;;
41514;SDS011;27247;48.020;16.720;2022-12-29T14:48:43;41.55;;;22.45;;
41514;SDS011;27247;48.020;16.720;2022-12-29T14:52:55;41.47;;;21.77;;
41514;SDS011;27247;48.020;16.720;2022-12-29T14:57:13;40.33;;;22.23;;
41514;SDS011;27247;48.020;16.720;2022-12-29T15:06:04;39.65;;;22.70;;
41514;SDS011;27247;48.020;16.720;2022-12-29T15:10:18;45.45;;;23.25;;
41514;SDS011;27247;48.020;16.720;2022-12-29T15:14:37;43.17;;;23.10;;
41514;SDS011;27247;48.020;16.720;2022-12-29T15:18:58;39.03;;;20.58;;
41514;SDS011;27247;48.020;16.720;2022-12-29T15:23:09;38.95;;;20.48;;
41514;SDS011;27247;48.020;16.720;2022-12-29T15:27:25;42.55;;;20.88;;
41514;SDS011;27247;48.020;16.720;2022-12-29T15:31:36;41.20;;;22.45;;
41514;SDS011;27247;48.020;16.720;2022-12-29T15:36:02;41.65;;;22.75;;
41514;SDS011;27247;48.020;16.720;2022-12-29T15:40:24;39.95;;;21.73;;
41514;SDS011;27247;48.020;16.720;2022-12-29T15:44:41;49.15;;;24.20;;
41514;SDS011;27247;48.020;16.720;2022-12-29T15:48:53;45.90;;;25.02;;
41514;SDS011;27247;48.020;16.720;2022-12-29T15:53:04;44.60;;;24.20;;
41514;SDS011;27247;48.020;16.720;2022-12-29T15:57:25;47.28;;;25.67;;
41514;SDS011;27247;48.020;16.720;2022-12-29T16:01:37;51.45;;;26.90;;
41514;SDS011;27247;48.020;16.720;2022-12-29T16:05:53;51.88;;;26.70;;
41514;SDS011;27247;48.020;16.720;2022-12-29T16:10:05;53.13;;;25.92;;
41514;SDS011;27247;48.020;16.720;2022-12-29T16:14:16;58.45;;;30.75;;
41514;SDS011;27247;48.020;16.720;2022-12-29T16:18:33;52.33;;;27.67;;
41514;SDS011;27247;48.020;16.720;2022-12-29T16:22:46;48.95;;;26.27;;
41514;SDS011;27247;48.020;16.720;2022-12-29T16:27:07;50.80;;;26.25;;
41514;SDS011;27247;48.020;16.720;2022-12-29T16:31:34;54.28;;;27.40;;
41514;SDS011;27247;48.020;16.720;2022-12-29T16:35:46;55.80;;;28.60;;
41514;SDS011;27247;48.020;16.720;2022-12-29T16:40:18;60.55;;;29.55;;
41514;SDS011;27247;48.020;16.720;2022-12-29T16:44:28;62.53;;;30.60;;
41514;SDS011;27247;48.020;16.720;2022-12-29T16:48:46;61.47;;;31.88;;
41514;SDS011;27247;48.020;16.720;2022-12-29T16:53:00;62.60;;;31.40;;
41514;SDS011;27247;48.020;16.720;2022-12-29T16:57:13;73.10;;;35.72;;
41514;SDS011;27247;48.020;16.720;2022-12-29T17:01:24;80.90;;;37.80;;
41514;SDS011;27247;48.020;16.720;2022-12-29T17:05:34;91.00;;;43.78;;
41514;SDS011;27247;48.020;16.720;2022-12-29T17:09:44;70.93;;;36.10;;
41514;SDS011;27247;48.020;16.720;2022-12-29T17:13:55;76.70;;;38.30;;
41514;SDS011;27247;48.020;16.720;2022-12-29T17:18:06;72.22;;;35.90;;
41514;SDS011;27247;48.020;16.720;2022-12-29T17:22:24;72.40;;;34.75;;
41514;SDS011;27247;48.020;16.720;2022-12-29T17:26:36;82.93;;;38.78;;
41514;SDS011;27247;48.020;16.720;2022-12-29T17:30:46;75.65;;;37.00;;
41514;SDS011;27247;48.020;16.720;2022-12-29T17:34:57;74.20;;;34.35;;
41514;SDS011;27247;48.020;16.720;2022-12-29T17:39:07;82.00;;;38.50;;
41514;SDS011;27247;48.020;16.720;2022-12-29T17:43:18;78.15;;;35.75;;
41514;SDS011;27247;48.020;16.720;2022-12-29T17:47:29;77.45;;;37.53;;
41514;SDS011;27247;48.020;16.720;2022-12-29T17:51:43;69.60;;;36.08;;
41514;SDS011;27247;48.020;16.720;2022-12-29T17:55:55;72.50;;;36.38;;
41514;SDS011;27247;48.020;16.720;2022-12-29T18:00:07;65.32;;;35.28;;
41514;SDS011;27247;48.020;16.720;2022-12-29T18:04:23;71.80;;;36.17;;
41514;SDS011;27247;48.020;16.720;2022-12-29T18:08:34;69.60;;;36.05;;
41514;SDS011;27247;48.020;16.720;2022-12-29T18:12:46;75.90;;;37.45;;
41514;SDS011;27247;48.020;16.720;2022-12-29T18:16:57;71.35;;;36.60;;
41514;SDS011;27247;48.020;16.720;2022-12-29T18:21:13;75.10;;;37.50;;
41514;SDS011;27247;48.020;16.720;2022-12-29T18:29:58;69.32;;;35.95;;
41514;SDS011;27247;48.020;16.720;2022-12-29T18:34:12;74.13;;;37.75;;
41514;SDS011;27247;48.020;16.720;2022-12-29T18:38:24;75.85;;;36.38;;
41514;SDS011;27247;48.020;16.720;2022-12-29T18:42:35;73.35;;;37.88;;
41514;SDS011;27247;48.020;16.720;2022-12-29T18:46:45;80.20;;;39.03;;
41514;SDS011;27247;48.020;16.720;2022-12-29T18:50:56;78.03;;;37.95;;
41514;SDS011;27247;48.020;16.720;2022-12-29T18:55:13;74.47;;;37.78;;
41514;SDS011;27247;48.020;16.720;2022-12-29T18:59:28;86.25;;;39.35;;
41514;SDS011;27247;48.020;16.720;2022-12-29T19:03:38;76.63;;;39.13;;
41514;SDS011;27247;48.020;16.720;2022-12-29T19:07:49;80.47;;;38.78;;
41514;SDS011;27247;48.020;16.720;2022-12-29T19:12:01;74.75;;;37.60;;
41514;SDS011;27247;48.020;16.720;2022-12-29T19:16:12;76.05;;;37.13;;
41514;SDS011;27247;48.020;16.720;2022-12-29T19:20:32;75.32;;;37.25;;
41514;SDS011;27247;48.020;16.720;2022-12-29T19:24:44;80.07;;;39.45;;
41514;SDS011;27247;48.020;16.720;2022-12-29T19:28:55;81.90;;;38.03;;
41514;SDS011;27247;48.020;16.720;2022-12-29T19:33:05;73.07;;;37.78;;
41514;SDS011;27247;48.020;16.720;2022-12-29T19:37:16;75.78;;;39.63;;
41514;SDS011;27247;48.020;16.720;2022-12-29T19:41:26;76.68;;;37.67;;
41514;SDS011;27247;48.020;16.720;2022-12-29T19:45:40;75.47;;;39.75;;
41514;SDS011;27247;48.020;16.720;2022-12-29T19:49:52;77.97;;;38.13;;
41514;SDS011;27247;48.020;16.720;2022-12-29T19:54:03;78.75;;;40.60;;
41514;SDS011;27247;48.020;16.720;2022-12-29T19:58:13;80.10;;;40.58;;
41514;SDS011;27247;48.020;16.720;2022-12-29T20:02:28;79.18;;;39.28;;
41514;SDS011;27247;48.020;16.720;2022-12-29T20:06:40;83.82;;;39.08;;
41514;SDS011;27247;48.020;16.720;2022-12-29T20:10:58;70.28;;;38.42;;
41514;SDS011;27247;48.020;16.720;2022-12-29T20:15:13;72.50;;;37.42;;
41514;SDS011;27247;48.020;16.720;2022-12-29T20:19:24;74.57;;;39.22;;
41514;SDS011;27247;48.020;16.720;2022-12-29T20:23:36;74.90;;;38.75;;
41514;SDS011;27247;48.020;16.720;2022-12-29T20:27:47;78.28;;;41.15;;
41514;SDS011;27247;48.020;16.720;2022-12-29T20:31:58;78.93;;;39.47;;
41514;SDS011;27247;48.020;16.720;2022-12-29T20:36:13;77.57;;;38.80;;
41514;SDS011;27247;48.020;16.720;2022-12-29T20:40:25;86.57;;;43.28;;
41514;SDS011;27247;48.020;16.720;2022-12-29T20:44:35;84.90;;;40.65;;
41514;SDS011;27247;48.020;16.720;2022-12-29T20:48:46;81.82;;;42.95;;
41514;SDS011;27247;48.020;16.720;2022-12-29T20:52:57;86.07;;;41.70;;
41514;SDS011;27247;48.020;16.720;2022-12-29T20:57:08;86.40;;;42.40;;
41514;SDS011;27247;48.020;16.720;2022-12-29T21:01:19;83.00;;;42.80;;
41514;SDS011;27247;48.020;16.720;2022-12-29T21:05:32;79.20;;;42.90;;
41514;SDS011;27247;48.020;16.720;2022-12-29T21:09:46;85.38;;;41.88;;
41514;SDS011;27247;48.020;16.720;2022-12-29T21:13:57;77.05;;;41.35;;
41514;SDS011;27247;48.020;16.720;2022-12-29T21:18:08;80.72;;;41.72;;
41514;SDS011;27247;48.020;16.720;2022-12-29T21:22:18;86.80;;;43.85;;
41514;SDS011;27247;48.020;16.720;2022-12-29T21:26:29;81.60;;;41.00;;
41514;SDS011;27247;48.020;16.720;2022-12-29T21:30:40;86.60;;;40.97;;
41514;SDS011;27247;48.020;16.720;2022-12-29T21:34:51;81.22;;;38.58;;
41514;SDS011;27247;48.020;16.720;2022-12-29T21:39:01;75.90;;;38.90;;
41514;SDS011;27247;48.020;16.720;2022-12-29T21:43:13;81.18;;;40.20;;
41514;SDS011;27247;48.020;16.720;2022-12-29T21:47:23;87.40;;;40.85;;
41514;SDS011;27247;48.020;16.720;2022-12-29T21:51:33;74.07;;;39.65;;
41514;SDS011;27247;48.020;16.720;2022-12-29T21:55:59;78.40;;;40.47;;
41514;SDS011;27247;48.020;16.720;2022-12-29T22:00:10;81.45;;;38.80;;
41514;SDS011;27247;48.020;16.720;2022-12-29T22:04:39;83.47;;;39.90;;
41514;SDS011;27247;48.020;16.720;2022-12-29T22:09:08;80.18;;;40.38;;
41514;SDS011;27247;48.020;16.720;2022-12-29T22:13:37;83.60;;;40.50;;
41514;SDS011;27247;48.020;16.720;2022-12-29T22:17:49;78.65;;;39.95;;
41514;SDS011;27247;48.020;16.720;2022-12-29T22:22:02;82.40;;;38.53;;
41514;SDS011;27247;48.020;16.720;2022-12-29T22:26:13;79.75;;;40.88;;
41514;SDS011;27247;48.020;16.720;2022-12-29T22:30:25;81.82;;;39.83;;
41514;SDS011;27247;48.020;16.720;2022-12-29T22:34:36;76.70;;;39.58;;
41514;SDS011;27247;48.020;16.720;2022-12-29T22:38:47;81.50;;;40.03;;
41514;SDS011;27247;48.020;16.720;2022-12-29T22:42:58;87.70;;;41.45;;
41514;SDS011;27247;48.020;16.720;2022-12-29T22:47:08;77.80;;;39.10;;
41514;SDS011;27247;48.020;16.720;2022-12-29T22:51:19;77.55;;;40.08;;
41514;SDS011;27247;48.020;16.720;2022-12-29T22:55:29;85.55;;;40.42;;
41514;SDS011;27247;48.020;16.720;2022-12-29T22:59:39;82.80;;;39.60;;
41514;SDS011;27247;48.020;16.720;2022-12-29T23:03:50;77.93;;;39.85;;
41514;SDS011;27247;48.020;16.720;2022-12-29T23:08:00;83.82;;;39.80;;
41514;SDS011;27247;48.020;16.720;2022-12-29T23:12:11;83.85;;;40.90;;
41514;SDS011;27247;48.020;16.720;2022-12-29T23:16:21;82.18;;;39.70;;
41514;SDS011;27247;48.020;16.720;2022-12-29T23:20:32;80.97;;;39.00;;
41514;SDS011;27247;48.020;16.720;2022-12-29T23:24:42;81.50;;;40.60;;
41514;SDS011;27247;48.020;16.720;2022-12-29T23:28:53;71.82;;;37.65;;
41514;SDS011;27247;48.020;16.720;2022-12-29T23:33:04;74.90;;;39.47;;
41514;SDS011;27247;48.020;16.720;2022-12-29T23:37:14;85.07;;;40.33;;
41514;SDS011;27247;48.020;16.720;2022-12-29T23:41:25;82.05;;;40.38;;
41514;SDS011;27247;48.020;16.720;2022-12-29T23:45:36;84.85;;;41.90;;
41514;SDS011;27247;48.020;16.720;2022-12-29T23:49:47;79.80;;;40.40;;
41514;SDS011;27247;48.020;16.720;2022-12-29T23:53:57;85.35;;;40.88;;
41514;SDS011;27247;48.020;16.720;2022-12-29T23:58:08;77.88;;;40.67;;
